SWR41V LMML-LFSB
Flight info
| Callsign | SWR41V |
|---|---|
| Flight time | N/A |
| Altitude | 34000 |
| Route | GZO DCT ALOKU DCT GIANO DCT BETOT DCT ROTIR DCT IRBAK DCT GOLAS DCT ODINA DCT PUXXI DCT DOPIL DCT NEMAG DCT CI33X |
| Aircraft | B77W/H-SDE1E2E3FGHIJ2J3J4J5M1RWXY/LB1D1 |
Departure
| Time | 2026-05-06 14:01 |
|---|---|
| Airport | Malta International Airport (LMML) |
Arrival
| Time | N/A |
|---|---|
| Airport | EuroAirport Basel–Mulhouse–Freiburg (LFSB) |
| Time | Latitude | Longitude | Altitude | Speed | Heading |
|---|---|---|---|---|---|
| 2026-05-06 13:26 | 35.84936 | 14.49337 | 263 ft | 0 kts | 359° |
| 2026-05-06 13:50 | 35.84912 | 14.49336 | 264 ft | 3 kts | 0° |
| 2026-05-06 13:50 | 35.84889 | 14.49339 | 264 ft | 1 kts | 343° |
| 2026-05-06 13:51 | 35.84868 | 14.49348 | 264 ft | 3 kts | 324° |
| 2026-05-06 13:51 | 35.84850 | 14.49370 | 283 ft | 3 kts | 310° |
| 2026-05-06 13:51 | 35.84842 | 14.49381 | 257 ft | 1 kts | 315° |
| 2026-05-06 13:56 | 35.84853 | 14.49368 | 264 ft | 6 kts | 315° |
| 2026-05-06 13:56 | 35.84886 | 14.49327 | 264 ft | 8 kts | 315° |
| 2026-05-06 13:56 | 35.84925 | 14.49266 | 263 ft | 10 kts | 296° |
| 2026-05-06 13:57 | 35.84919 | 14.49179 | 263 ft | 12 kts | 236° |
| 2026-05-06 13:57 | 35.84913 | 14.49083 | 263 ft | 13 kts | 297° |
| 2026-05-06 13:57 | 35.84968 | 14.48985 | 264 ft | 15 kts | 297° |
| 2026-05-06 13:57 | 35.85003 | 14.48860 | 264 ft | 16 kts | 284° |
| 2026-05-06 13:58 | 35.85029 | 14.48724 | 268 ft | 16 kts | 284° |
| 2026-05-06 13:58 | 35.85073 | 14.48596 | 273 ft | 18 kts | 305° |
| 2026-05-06 13:58 | 35.85195 | 14.48433 | 277 ft | 28 kts | 315° |
| 2026-05-06 13:58 | 35.85332 | 14.48262 | 277 ft | 28 kts | 316° |
| 2026-05-06 13:59 | 35.85481 | 14.48107 | 277 ft | 28 kts | 328° |
| 2026-05-06 13:59 | 35.85646 | 14.48021 | 277 ft | 12 kts | 330° |
| 2026-05-06 13:59 | 35.85662 | 14.47955 | 277 ft | 9 kts | 247° |
| 2026-05-06 13:59 | 35.85603 | 14.47932 | 277 ft | 10 kts | 164° |
| 2026-05-06 14:00 | 35.85575 | 14.47960 | 277 ft | 0 kts | 135° |
| 2026-05-06 14:01 | 35.85565 | 14.47972 | 277 ft | 15 kts | 135° |
| 2026-05-06 14:01 | 35.85227 | 14.48393 | 277 ft | 121 kts | 135° |
| 2026-05-06 14:01 | 35.84490 | 14.49311 | 793 ft | 151 kts | 135° |
| 2026-05-06 14:01 | 35.83717 | 14.50190 | 1881 ft | 157 kts | 139° |
| 2026-05-06 14:02 | 35.82924 | 14.51255 | 2552 ft | 183 kts | 142° |
| 2026-05-06 14:02 | 35.81631 | 14.51727 | 3060 ft | 218 kts | 184° |
| 2026-05-06 14:02 | 35.80249 | 14.50782 | 4041 ft | 242 kts | 225° |
| 2026-05-06 14:02 | 35.79457 | 14.48922 | 5114 ft | 250 kts | 242° |
| 2026-05-06 14:03 | 35.78713 | 14.46940 | 6107 ft | 259 kts | 238° |
| 2026-05-06 14:03 | 35.77846 | 14.44967 | 7232 ft | 264 kts | 237° |
| 2026-05-06 14:03 | 35.76918 | 14.43007 | 8466 ft | 264 kts | 236° |
| 2026-05-06 14:03 | 35.75985 | 14.41066 | 9763 ft | 262 kts | 241° |
| 2026-05-06 14:04 | 35.75459 | 14.38921 | 10826 ft | 271 kts | 263° |
| 2026-05-06 14:04 | 35.75614 | 14.36529 | 11408 ft | 304 kts | 283° |
| 2026-05-06 14:04 | 35.76630 | 14.34046 | 11731 ft | 350 kts | 308° |
| 2026-05-06 14:04 | 35.78670 | 14.32267 | 12732 ft | 366 kts | 334° |
| 2026-05-06 14:05 | 35.81075 | 14.31139 | 13951 ft | 376 kts | 337° |
| 2026-05-06 14:05 | 35.83564 | 14.30056 | 15229 ft | 382 kts | 338° |
| 2026-05-06 14:05 | 35.86082 | 14.28945 | 16520 ft | 388 kts | 337° |
| 2026-05-06 14:05 | 35.88645 | 14.27772 | 17718 ft | 397 kts | 336° |
| 2026-05-06 14:06 | 35.91255 | 14.26540 | 18855 ft | 404 kts | 335° |
| 2026-05-06 14:06 | 35.93884 | 14.25276 | 20047 ft | 407 kts | 335° |
| 2026-05-06 14:06 | 35.96525 | 14.23994 | 21307 ft | 409 kts | 335° |
| 2026-05-06 14:06 | 35.99180 | 14.22702 | 22514 ft | 413 kts | 335° |
| 2026-05-06 14:07 | 36.01870 | 14.21391 | 23625 ft | 418 kts | 335° |
| 2026-05-06 14:07 | 36.04596 | 14.20061 | 24534 ft | 423 kts | 335° |
| 2026-05-06 14:07 | 36.07349 | 14.18695 | 25341 ft | 430 kts | 334° |
| 2026-05-06 14:07 | 36.10138 | 14.17296 | 26038 ft | 437 kts | 334° |
| 2026-05-06 14:08 | 36.12981 | 14.15865 | 26774 ft | 443 kts | 334° |
| 2026-05-06 14:08 | 36.15847 | 14.14422 | 27537 ft | 447 kts | 334° |
| 2026-05-06 14:08 | 36.18743 | 14.12966 | 28316 ft | 450 kts | 334° |
| 2026-05-06 14:08 | 36.20668 | 14.11998 | 28777 ft | 454 kts | 334° |
| 2026-05-06 14:09 | 36.24607 | 14.10016 | 29679 ft | 460 kts | 334° |
| 2026-05-06 14:09 | 36.26576 | 14.09026 | 30088 ft | 463 kts | 334° |
| 2026-05-06 14:09 | 36.29575 | 14.07517 | 30596 ft | 467 kts | 333° |
| 2026-05-06 14:09 | 36.32593 | 14.05997 | 31103 ft | 470 kts | 333° |
| 2026-05-06 14:10 | 36.35637 | 14.04464 | 31707 ft | 470 kts | 333° |
| 2026-05-06 14:10 | 36.38662 | 14.02941 | 32411 ft | 468 kts | 333° |
| 2026-05-06 14:10 | 36.41668 | 14.01426 | 33131 ft | 465 kts | 332° |
| 2026-05-06 14:10 | 36.44669 | 13.99912 | 33817 ft | 464 kts | 332° |
| 2026-05-06 14:11 | 36.47647 | 13.98407 | 34420 ft | 462 kts | 332° |
| 2026-05-06 14:11 | 36.50613 | 13.96907 | 35105 ft | 457 kts | 332° |
| 2026-05-06 14:11 | 36.53541 | 13.95426 | 35847 ft | 451 kts | 332° |
| 2026-05-06 14:11 | 36.56431 | 13.93963 | 36533 ft | 446 kts | 332° |
| 2026-05-06 14:12 | 36.59294 | 13.92510 | 37155 ft | 443 kts | 332° |
| 2026-05-06 14:12 | 36.62129 | 13.91070 | 37750 ft | 440 kts | 332° |
| 2026-05-06 14:12 | 36.64959 | 13.89630 | 38321 ft | 437 kts | 332° |
| 2026-05-06 14:12 | 36.67765 | 13.88202 | 38835 ft | 435 kts | 332° |
| 2026-05-06 14:13 | 36.70563 | 13.86776 | 39229 ft | 434 kts | 332° |
| 2026-05-06 14:13 | 36.73329 | 13.85365 | 39557 ft | 434 kts | 332° |
| 2026-05-06 14:13 | 36.76167 | 13.83915 | 39816 ft | 437 kts | 332° |
| 2026-05-06 14:13 | 36.78961 | 13.82485 | 39901 ft | 443 kts | 332° |
| 2026-05-06 14:14 | 36.84720 | 13.79539 | 39988 ft | 448 kts | 332° |
| 2026-05-06 14:14 | 36.90450 | 13.76614 | 39979 ft | 442 kts | 332° |
| 2026-05-06 14:15 | 36.96143 | 13.73699 | 39988 ft | 441 kts | 331° |
| 2026-05-06 14:15 | 37.01821 | 13.70782 | 39996 ft | 441 kts | 331° |
| 2026-05-06 14:16 | 37.07463 | 13.67879 | 39998 ft | 441 kts | 331° |
| 2026-05-06 14:16 | 37.13151 | 13.64949 | 39997 ft | 443 kts | 331° |
| 2026-05-06 14:17 | 37.18852 | 13.62008 | 40004 ft | 444 kts | 331° |
| 2026-05-06 14:17 | 37.24574 | 13.59051 | 39998 ft | 445 kts | 331° |
| 2026-05-06 14:18 | 37.30269 | 13.56008 | 40006 ft | 443 kts | 327° |
| 2026-05-06 14:18 | 37.35675 | 13.52319 | 40006 ft | 441 kts | 325° |
| 2026-05-06 14:19 | 37.41021 | 13.48554 | 40007 ft | 441 kts | 324° |